Time;durP1;ratioP1;P1;durP2;ratioP2;P2;SDS_P1;SDS_P2;PMS_P1;PMS_P2;Temp;Humidity;BMP_temperature;BMP_pressure;BME280_temperature;BME280_humidity;BME280_pressure;Samples;Min_cycle;Max_cycle;Signal;HPM_P1;HPM_P2
2023/10/05 00:03:46;;;;;;;14.00;2.00;;;13.40;99.90;;;;;;5040631;28;20496;-75
2023/10/05 00:06:23;;;;;;;11.90;2.33;;;13.40;99.90;;;;;;5037029;28;20466;-73
2023/10/05 00:08:50;;;;;;;9.90;2.40;;;13.40;99.90;;;;;;5036020;28;20017;-73
2023/10/05 00:11:24;;;;;;;9.18;2.33;;;13.40;99.90;;;;;;5038034;28;20034;-73
2023/10/05 00:13:52;;;;;;;12.83;2.43;;;13.40;99.90;;;;;;5036357;28;20033;-72
2023/10/05 00:16:21;;;;;;;6.50;2.28;;;13.40;99.90;;;;;;5022817;28;20296;-76
2023/10/05 00:18:49;;;;;;;14.80;2.60;;;13.40;99.90;;;;;;5035264;28;20029;-74
2023/10/05 00:21:18;;;;;;;12.65;2.72;;;13.40;99.90;;;;;;5036973;28;20025;-74
2023/10/05 00:23:44;;;;;;;15.60;2.75;;;13.30;99.90;;;;;;5038706;28;20025;-72
2023/10/05 00:26:10;;;;;;;9.73;2.65;;;13.30;99.90;;;;;;5038624;28;20022;-74
2023/10/05 00:28:35;;;;;;;10.48;2.00;;;13.30;99.90;;;;;;5038329;28;20470;-73
2023/10/05 00:31:03;;;;;;;10.27;2.58;;;13.40;99.90;;;;;;5035701;28;20086;-73
2023/10/05 00:33:28;;;;;;;10.60;2.47;;;13.30;99.90;;;;;;5040258;28;20155;-74
2023/10/05 00:35:54;;;;;;;6.90;2.40;;;13.30;99.90;;;;;;5036440;28;20021;-75
2023/10/05 00:38:20;;;;;;;9.38;2.58;;;13.30;99.90;;;;;;5037667;28;20077;-72
2023/10/05 00:41:03;;;;;;;13.95;2.50;;;13.30;99.90;;;;;;5037111;28;20029;-74
2023/10/05 00:43:28;;;;;;;9.48;2.80;;;13.30;99.90;;;;;;5035968;28;20032;-74
2023/10/05 00:45:58;;;;;;;11.82;2.38;;;13.30;99.90;;;;;;5033788;28;20022;-76
2023/10/05 00:51:23;;;;;;;9.68;2.60;;;13.40;99.90;;;;;;5036377;28;20033;-75
2023/10/05 00:53:50;;;;;;;10.52;2.78;;;13.30;99.90;;;;;;5038191;28;20113;-73
2023/10/05 00:56:16;;;;;;;7.63;2.60;;;13.30;99.90;;;;;;5037416;28;20029;-73
2023/10/05 00:58:44;;;;;;;11.27;2.20;;;13.30;99.90;;;;;;5035342;28;20029;-71
2023/10/05 01:01:16;;;;;;;17.23;2.60;;;13.30;99.90;;;;;;5035629;28;20025;-73
2023/10/05 01:06:55;;;;;;;9.57;2.40;;;13.30;99.90;;;;;;5035458;28;20040;-72
2023/10/05 01:09:52;;;;;;;11.27;2.30;;;13.30;99.90;;;;;;5037897;28;20163;-73
2023/10/05 01:15:09;;;;;;;19.17;3.30;;;13.30;99.90;;;;;;5024706;28;20047;-71
2023/10/05 01:17:36;;;;;;;9.48;2.13;;;13.30;99.90;;;;;;5039644;28;20034;-72
2023/10/05 01:20:12;;;;;;;10.18;2.40;;;13.30;99.90;;;;;;5037713;28;20030;-75
2023/10/05 01:22:39;;;;;;;17.55;2.88;;;13.30;99.90;;;;;;5037430;28;20053;-74
2023/10/05 01:25:06;;;;;;;14.48;2.70;;;13.30;99.90;;;;;;5037210;28;20177;-71
2023/10/05 01:27:38;;;;;;;15.10;3.33;;;13.30;99.90;;;;;;5038122;28;20036;-74
2023/10/05 01:30:04;;;;;;;15.07;2.47;;;13.30;99.90;;;;;;5033843;28;20045;-72
2023/10/05 01:32:32;;;;;;;12.00;2.72;;;13.30;99.90;;;;;;5037696;28;20030;-74
2023/10/05 01:34:59;;;;;;;7.80;2.40;;;13.30;99.90;;;;;;5032710;28;20037;-74
2023/10/05 01:37:30;;;;;;;12.45;2.42;;;13.30;99.90;;;;;;5037660;28;20386;-74
2023/10/05 01:39:59;;;;;;;14.10;2.67;;;13.30;99.90;;;;;;5020164;28;20029;-73
2023/10/05 01:42:25;;;;;;;9.48;2.20;;;13.30;99.90;;;;;;5019838;28;20037;-76
2023/10/05 01:44:50;;;;;;;14.90;2.75;;;13.30;99.90;;;;;;5037876;28;20028;-75
2023/10/05 01:47:17;;;;;;;15.77;2.58;;;13.30;99.90;;;;;;5036581;28;20050;-73
2023/10/05 01:49:45;;;;;;;15.15;2.65;;;13.30;99.90;;;;;;5037131;28;20030;-72
2023/10/05 01:52:11;;;;;;;14.85;2.58;;;13.30;99.90;;;;;;5036872;28;20114;-69
2023/10/05 01:54:37;;;;;;;10.05;2.25;;;13.30;99.90;;;;;;5037598;28;20042;-73
2023/10/05 01:57:09;;;;;;;14.90;2.58;;;13.40;99.90;;;;;;5034681;28;20078;-70
2023/10/05 01:59:37;;;;;;;12.73;2.80;;;13.30;99.90;;;;;;5036716;28;20019;-75
2023/10/05 02:02:10;;;;;;;17.05;2.67;;;13.30;99.90;;;;;;5019734;28;20560;-76
2023/10/05 02:04:43;;;;;;;14.43;3.15;;;13.40;99.90;;;;;;5037369;28;20053;-75
2023/10/05 02:07:10;;;;;;;9.10;2.50;;;13.30;99.90;;;;;;5036241;28;20026;-75
2023/10/05 02:09:38;;;;;;;11.50;2.25;;;13.30;99.90;;;;;;5025865;28;20030;-73
2023/10/05 02:12:06;;;;;;;8.23;2.30;;;13.30;99.90;;;;;;5038359;28;20022;-79
2023/10/05 02:14:44;;;;;;;12.98;2.55;;;13.30;99.90;;;;;;5041116;28;20033;-75
2023/10/05 02:17:13;;;;;;;8.93;2.10;;;13.30;99.90;;;;;;5025927;28;20033;-73
2023/10/05 02:19:41;;;;;;;10.20;2.55;;;13.30;99.90;;;;;;5022936;28;20040;-72
2023/10/05 02:22:11;;;;;;;15.13;3.42;;;13.20;99.90;;;;;;5039327;28;20018;-74
2023/10/05 02:24:40;;;;;;;19.23;4.00;;;13.30;99.90;;;;;;5041530;28;20021;-77
2023/10/05 02:27:11;;;;;;;10.20;2.28;;;13.30;99.90;;;;;;5040561;28;20025;-78
2023/10/05 02:29:40;;;;;;;20.08;2.83;;;13.30;99.90;;;;;;5043263;28;20081;-74
2023/10/05 02:32:10;;;;;;;9.52;2.63;;;13.20;99.90;;;;;;5022254;28;20044;-73
2023/10/05 02:34:41;;;;;;;13.70;3.17;;;13.20;99.90;;;;;;5021779;28;20048;-74
2023/10/05 02:37:19;;;;;;;12.77;3.00;;;13.20;99.90;;;;;;5040831;28;20037;-72
2023/10/05 02:39:45;;;;;;;11.77;3.53;;;13.30;99.90;;;;;;5040428;28;20048;-72
2023/10/05 02:42:16;;;;;;;14.00;2.70;;;13.30;99.90;;;;;;5038432;28;20018;-72
2023/10/05 02:44:43;;;;;;;14.73;2.83;;;13.30;99.90;;;;;;5040634;28;20101;-74
2023/10/05 02:47:10;;;;;;;9.18;2.55;;;13.30;99.90;;;;;;5037659;28;20069;-70
2023/10/05 02:49:49;;;;;;;14.52;3.10;;;13.30;99.90;;;;;;5023750;28;20041;-73
2023/10/05 02:52:16;;;;;;;14.45;3.33;;;13.30;99.90;;;;;;5042724;28;20144;-76
2023/10/05 02:54:51;;;;;;;10.35;2.70;;;13.30;99.90;;;;;;5037230;28;20045;-72
2023/10/05 02:57:19;;;;;;;12.95;2.95;;;13.30;99.90;;;;;;5039377;28;20018;-74
2023/10/05 02:59:46;;;;;;;16.98;3.33;;;13.30;99.90;;;;;;5037056;28;20064;-71
2023/10/05 03:02:16;;;;;;;9.88;3.00;;;13.30;99.90;;;;;;5037871;28;20037;-74
2023/10/05 03:05:16;;;;;;;15.80;3.17;;;13.30;99.90;;;;;;5040248;28;20037;-73
2023/10/05 03:07:35;;;;;;;13.98;3.13;;;13.30;99.90;;;;;;5036525;28;20048;-75
2023/10/05 03:10:01;;;;;;;16.67;3.38;;;13.20;99.90;;;;;;5044083;28;20018;-74
2023/10/05 03:12:27;;;;;;;12.10;3.38;;;13.30;99.90;;;;;;5019510;28;20093;-73
2023/10/05 03:14:54;;;;;;;14.52;3.83;;;13.30;99.90;;;;;;5020045;28;20037;-71
2023/10/05 03:17:21;;;;;;;15.15;3.60;;;13.30;99.90;;;;;;5036197;28;20034;-73
2023/10/05 03:19:50;;;;;;;11.00;3.15;;;13.30;99.90;;;;;;5039791;28;20172;-73
2023/10/05 03:22:16;;;;;;;14.98;3.13;;;13.30;99.90;;;;;;5037780;28;20870;-73
2023/10/05 03:24:45;;;;;;;14.63;3.50;;;13.30;99.90;;;;;;5039913;28;20081;-73
2023/10/05 03:27:22;;;;;;;11.68;3.17;;;13.30;99.90;;;;;;5037428;28;20022;-71
2023/10/05 03:29:52;;;;;;;10.27;2.95;;;13.30;99.90;;;;;;5036946;28;20033;-70
2023/10/05 03:32:19;;;;;;;11.73;3.00;;;13.30;99.90;;;;;;5038715;28;20401;-76
2023/10/05 03:34:55;;;;;;;18.45;4.03;;;13.30;99.90;;;;;;5038648;28;20456;-74
2023/10/05 03:37:22;;;;;;;11.25;3.30;;;13.30;99.90;;;;;;5039168;28;20022;-72
2023/10/05 03:39:51;;;;;;;19.40;3.72;;;13.30;99.90;;;;;;5038607;28;20021;-75
2023/10/05 03:42:17;;;;;;;16.50;3.58;;;13.30;99.90;;;;;;5041078;28;20037;-72
2023/10/05 03:44:44;;;;;;;10.50;3.30;;;13.30;99.90;;;;;;5021184;28;20059;-68
2023/10/05 03:47:11;;;;;;;12.90;3.20;;;13.30;99.90;;;;;;5036889;28;20458;-74
2023/10/05 03:49:37;;;;;;;16.60;3.53;;;13.30;99.90;;;;;;5038933;28;20034;-72
2023/10/05 03:52:06;;;;;;;13.07;3.42;;;13.40;99.90;;;;;;5036487;28;20025;-74
2023/10/05 03:54:33;;;;;;;15.38;3.50;;;13.30;99.90;;;;;;5023504;28;20222;-74
2023/10/05 03:57:17;;;;;;;11.95;3.13;;;13.40;99.90;;;;;;5019132;28;20026;-71
2023/10/05 03:59:43;;;;;;;13.15;2.83;;;13.30;99.90;;;;;;5035655;28;20045;-73
2023/10/05 04:02:09;;;;;;;12.05;3.03;;;13.30;99.90;;;;;;5048915;28;20021;-71
2023/10/05 04:04:35;;;;;;;17.83;2.83;;;13.30;99.90;;;;;;5045131;28;20022;-73
2023/10/05 04:07:04;;;;;;;13.30;3.05;;;13.40;99.90;;;;;;5023802;28;20125;-81
2023/10/05 04:09:30;;;;;;;11.00;2.80;;;13.30;99.90;;;;;;5022979;28;20033;-73
2023/10/05 04:11:56;;;;;;;13.60;3.13;;;13.40;99.90;;;;;;5026803;28;20037;-76
2023/10/05 04:14:23;;;;;;;10.15;2.90;;;13.40;99.90;;;;;;5044780;28;20049;-74
2023/10/05 04:16:53;;;;;;;13.43;3.00;;;13.40;99.90;;;;;;5044505;28;20060;-75
2023/10/05 04:19:19;;;;;;;13.65;3.03;;;13.40;99.90;;;;;;5044368;28;20033;-76
2023/10/05 04:21:45;;;;;;;16.15;3.13;;;13.50;99.90;;;;;;5027109;28;20052;-77
2023/10/05 04:24:14;;;;;;;12.52;3.00;;;13.40;99.90;;;;;;5026683;28;20029;-73
2023/10/05 04:26:44;;;;;;;12.63;2.88;;;13.40;99.90;;;;;;5044067;28;20030;-75
2023/10/05 04:29:14;;;;;;;16.85;2.53;;;13.40;99.90;;;;;;5044090;28;20026;-73
2023/10/05 04:31:41;;;;;;;11.77;2.90;;;13.40;99.90;;;;;;5044722;28;20022;-74
2023/10/05 04:34:11;;;;;;;10.90;2.67;;;13.40;99.90;;;;;;5026414;28;20455;-74
2023/10/05 04:36:38;;;;;;;9.55;2.80;;;13.40;99.90;;;;;;5043938;28;20018;-75
2023/10/05 04:39:05;;;;;;;15.90;3.67;;;13.40;99.90;;;;;;5044248;28;20045;-74
2023/10/05 04:41:39;;;;;;;20.58;2.90;;;13.40;99.90;;;;;;5026204;28;20497;-71
2023/10/05 04:44:12;;;;;;;15.48;3.25;;;13.40;99.90;;;;;;5044335;28;20072;-71
2023/10/05 04:46:47;;;;;;;13.43;3.13;;;13.30;99.90;;;;;;5026357;28;20049;-77
2023/10/05 04:49:14;;;;;;;10.77;4.30;;;13.40;99.90;;;;;;5026491;28;20053;-77
2023/10/05 04:51:41;;;;;;;18.83;3.20;;;13.40;99.90;;;;;;5044026;28;20037;-75
2023/10/05 04:54:18;;;;;;;11.75;3.55;;;13.30;99.90;;;;;;5026464;28;20041;-75
2023/10/05 04:56:53;;;;;;;15.70;2.95;;;13.30;99.90;;;;;;5026271;28;20021;-76
2023/10/05 04:59:36;;;;;;;13.85;3.22;;;13.40;99.90;;;;;;5026752;28;20600;-74
2023/10/05 05:02:20;;;;;;;13.20;3.35;;;13.30;99.90;;;;;;5043987;28;20025;-73
2023/10/05 05:07:12;;;;;;;13.77;3.10;;;13.30;99.90;;;;;;5044126;28;20029;-72
2023/10/05 05:09:42;;;;;;;16.50;3.67;;;13.30;99.90;;;;;;5043212;28;20029;-77
2023/10/05 05:12:20;;;;;;;13.73;3.22;;;13.30;99.90;;;;;;5044029;28;20033;-74
2023/10/05 05:14:52;;;;;;;13.68;3.65;;;13.40;99.90;;;;;;5043935;28;20037;-75
2023/10/05 05:17:19;;;;;;;19.05;5.55;;;13.40;99.90;;;;;;5043904;28;20022;-72
2023/10/05 05:19:51;;;;;;;14.02;4.90;;;13.40;99.90;;;;;;5044069;28;20041;-77
2023/10/05 05:22:18;;;;;;;16.38;4.57;;;13.40;99.90;;;;;;5025703;28;20026;-75
2023/10/05 05:24:45;;;;;;;17.77;4.57;;;13.30;99.90;;;;;;5043786;28;20029;-74
2023/10/05 05:29:42;;;;;;;11.48;2.85;;;13.30;99.90;;;;;;5043597;28;20054;-69
2023/10/05 05:32:10;;;;;;;18.55;3.22;;;13.20;99.90;;;;;;5022769;28;20037;-74
2023/10/05 05:34:37;;;;;;;9.82;2.47;;;13.30;99.90;;;;;;5019523;28;20109;-77
2023/10/05 05:37:04;;;;;;;13.23;2.92;;;13.30;99.90;;;;;;5043664;28;20025;-73
2023/10/05 05:39:39;;;;;;;18.20;3.05;;;13.30;99.90;;;;;;5045087;28;20030;-76
2023/10/05 05:42:14;;;;;;;16.15;4.47;;;13.20;99.90;;;;;;5029943;28;20029;-74
2023/10/05 05:44:41;;;;;;;16.15;3.58;;;13.20;99.90;;;;;;5029714;28;20038;-74
2023/10/05 05:47:10;;;;;;;11.57;3.15;;;13.30;99.90;;;;;;5047419;28;20046;-75
2023/10/05 05:49:45;;;;;;;14.23;3.03;;;13.20;99.90;;;;;;5026699;28;20068;-75
2023/10/05 05:52:12;;;;;;;14.93;2.72;;;13.20;99.90;;;;;;5047750;28;20032;-68
2023/10/05 05:54:39;;;;;;;13.10;3.13;;;13.20;99.90;;;;;;5029218;28;20044;-74
2023/10/05 05:57:08;;;;;;;11.98;3.13;;;13.20;99.90;;;;;;5047357;28;20056;-72
2023/10/05 05:59:41;;;;;;;13.00;3.40;;;13.20;99.90;;;;;;5029871;28;20029;-76
2023/10/05 06:02:08;;;;;;;10.02;3.28;;;13.30;99.90;;;;;;5026215;28;20597;-74
2023/10/05 06:04:41;;;;;;;13.63;3.40;;;13.30;99.90;;;;;;5043608;28;20034;-77
2023/10/05 06:07:13;;;;;;;16.35;3.17;;;13.30;99.90;;;;;;5047195;28;20021;-73
2023/10/05 06:09:45;;;;;;;10.60;3.10;;;13.40;99.90;;;;;;5047422;28;20036;-79
2023/10/05 06:12:11;;;;;;;12.45;3.08;;;13.40;99.90;;;;;;5029343;28;20478;-77
2023/10/05 06:14:41;;;;;;;12.55;2.97;;;13.40;99.90;;;;;;5028934;28;20034;-73
2023/10/05 06:17:10;;;;;;;10.65;3.28;;;13.40;99.90;;;;;;5046927;28;20052;-72
2023/10/05 06:19:36;;;;;;;11.68;3.08;;;13.50;99.90;;;;;;5046586;28;20034;-76
2023/10/05 06:22:04;;;;;;;20.33;3.78;;;13.50;99.90;;;;;;5047544;28;20057;-77
2023/10/05 06:24:30;;;;;;;20.20;3.15;;;13.50;99.90;;;;;;5029212;28;20470;-69
2023/10/05 06:26:55;;;;;;;28.70;8.55;;;13.50;99.90;;;;;;5046155;28;20030;-75
2023/10/05 06:29:21;;;;;;;15.20;4.05;;;13.60;99.90;;;;;;5029263;28;20059;-77
2023/10/05 06:31:46;;;;;;;20.92;5.88;;;13.60;99.90;;;;;;5030260;28;20533;-69
2023/10/05 06:34:12;;;;;;;14.07;3.58;;;13.50;99.90;;;;;;5046052;28;20167;-71
2023/10/05 06:36:39;;;;;;;14.77;3.50;;;13.60;99.90;;;;;;5043504;28;20029;-73
2023/10/05 06:39:14;;;;;;;17.10;4.00;;;13.60;99.90;;;;;;5045950;28;20108;-74
2023/10/05 06:41:40;;;;;;;13.57;3.40;;;13.60;99.90;;;;;;5045949;28;20029;-75
2023/10/05 06:44:07;;;;;;;15.40;3.53;;;13.60;99.90;;;;;;5046789;28;20021;-77
2023/10/05 06:46:33;;;;;;;17.63;3.40;;;13.60;99.90;;;;;;5030301;28;20034;-79
2023/10/05 06:48:59;;;;;;;13.43;3.15;;;13.60;99.90;;;;;;5046273;28;20109;-72
2023/10/05 06:51:26;;;;;;;18.55;3.00;;;13.70;99.90;;;;;;5046590;28;20024;-75
2023/10/05 06:53:53;;;;;;;15.98;3.50;;;13.70;99.90;;;;;;5045081;28;20038;-72
2023/10/05 06:56:22;;;;;;;10.27;2.90;;;13.70;99.90;;;;;;5049587;28;20061;-79
2023/10/05 06:58:48;;;;;;;12.52;3.60;;;13.80;99.90;;;;;;5027024;28;20033;-75
2023/10/05 07:01:14;;;;;;;14.27;3.13;;;13.90;99.90;;;;;;5045360;28;20021;-77
2023/10/05 07:03:40;;;;;;;21.38;3.38;;;13.90;99.90;;;;;;5027874;28;20030;-76
2023/10/05 07:06:06;;;;;;;17.10;3.20;;;13.90;99.90;;;;;;5045153;28;20022;-76
2023/10/05 07:08:32;;;;;;;13.80;3.58;;;13.90;99.90;;;;;;5045859;28;20197;-80
2023/10/05 07:10:58;;;;;;;18.00;3.22;;;14.00;99.90;;;;;;5021726;28;20028;-76
2023/10/05 07:13:24;;;;;;;15.68;3.42;;;14.00;99.90;;;;;;5025356;28;20128;-75
2023/10/05 07:15:50;;;;;;;12.60;3.60;;;14.00;99.90;;;;;;5034229;28;20052;-76
2023/10/05 07:18:18;;;;;;;13.93;3.10;;;14.00;99.90;;;;;;5045716;28;20036;-77
2023/10/05 07:20:44;;;;;;;11.90;3.10;;;14.10;99.90;;;;;;5025175;28;20100;-75
2023/10/05 07:23:10;;;;;;;12.52;3.05;;;14.10;99.90;;;;;;5024956;28;20116;-78
2023/10/05 07:25:36;;;;;;;14.18;3.70;;;14.10;99.90;;;;;;5030260;28;20025;-74
2023/10/05 07:28:03;;;;;;;16.10;3.53;;;14.10;99.90;;;;;;5026443;28;20057;-75
2023/10/05 07:30:29;;;;;;;11.65;3.15;;;14.10;99.90;;;;;;5045669;28;20055;-77
2023/10/05 07:32:55;;;;;;;17.30;3.85;;;14.20;99.90;;;;;;5048288;28;20481;-75
2023/10/05 07:35:21;;;;;;;15.77;3.47;;;14.20;99.90;;;;;;5032422;28;20036;-76
2023/10/05 07:37:47;;;;;;;20.52;3.75;;;14.20;99.90;;;;;;5029715;28;20033;-71
2023/10/05 07:40:13;;;;;;;19.95;3.80;;;14.20;99.90;;;;;;5044852;28;20049;-75
2023/10/05 07:42:39;;;;;;;19.38;3.50;;;14.20;99.90;;;;;;5045585;28;20033;-73
2023/10/05 07:45:07;;;;;;;15.02;3.40;;;14.20;99.90;;;;;;5035897;28;20390;-73
2023/10/05 07:47:39;;;;;;;18.02;3.30;;;14.20;99.90;;;;;;5049828;28;20049;-74
2023/10/05 07:50:06;;;;;;;12.48;3.08;;;14.20;99.90;;;;;;5027561;28;20025;-70
2023/10/05 07:52:32;;;;;;;14.20;3.38;;;14.20;99.90;;;;;;5045215;28;20025;-77
2023/10/05 07:54:57;;;;;;;23.17;4.32;;;14.20;99.90;;;;;;5019329;28;20064;-80
2023/10/05 07:57:23;;;;;;;18.33;3.90;;;14.20;99.90;;;;;;5043198;28;20033;-79
2023/10/05 07:59:49;;;;;;;19.63;4.15;;;14.20;99.90;;;;;;5026916;28;20022;-77
2023/10/05 08:02:14;;;;;;;21.70;4.35;;;14.20;99.90;;;;;;5027424;28;20041;-77
2023/10/05 08:04:41;;;;;;;16.65;4.43;;;14.10;99.90;;;;;;5041770;28;20033;-76
2023/10/05 08:07:08;;;;;;;21.27;4.28;;;14.00;99.90;;;;;;5044980;28;20025;-82
2023/10/05 08:09:34;;;;;;;16.85;4.50;;;14.00;99.90;;;;;;5023659;28;20482;-73
2023/10/05 08:12:00;;;;;;;23.27;5.55;;;14.00;99.90;;;;;;5024259;28;20026;-79
2023/10/05 08:14:30;;;;;;;17.15;4.75;;;13.90;99.90;;;;;;5022439;28;20180;-74
2023/10/05 08:16:56;;;;;;;20.75;5.22;;;13.90;99.90;;;;;;5040897;28;21595;-82
2023/10/05 08:19:25;;;;;;;17.25;4.93;;;13.80;99.90;;;;;;5032550;28;20033;-81
2023/10/05 08:21:54;;;;;;;21.52;5.35;;;13.80;99.90;;;;;;5029470;28;20037;-80
2023/10/05 08:24:20;;;;;;;25.98;5.10;;;13.80;99.90;;;;;;5026925;28;20029;-78
2023/10/05 08:26:49;;;;;;;20.38;5.68;;;13.80;99.90;;;;;;5024557;28;20041;-80
2023/10/05 08:29:16;;;;;;;18.10;5.05;;;13.80;99.90;;;;;;5027399;28;20053;-76
2023/10/05 08:31:44;;;;;;;28.58;6.18;;;13.80;99.90;;;;;;5031756;28;20029;-80
2023/10/05 08:34:22;;;;;;;22.38;5.15;;;13.80;99.90;;;;;;5019464;28;20047;-78
2023/10/05 08:36:49;;;;;;;21.30;5.80;;;13.80;99.90;;;;;;5044159;28;20099;-75
2023/10/05 08:39:23;;;;;;;31.08;6.18;;;13.80;99.90;;;;;;5034361;28;20561;-80
2023/10/05 08:41:48;;;;;;;24.60;5.57;;;13.80;99.90;;;;;;5014278;28;20029;-78
2023/10/05 08:44:27;;;;;;;19.73;5.65;;;13.90;99.90;;;;;;5034931;28;20026;-74
2023/10/05 08:46:55;;;;;;;23.30;6.38;;;13.80;99.90;;;;;;5024766;28;20041;-72
2023/10/05 08:49:23;;;;;;;23.98;5.60;;;13.80;99.90;;;;;;5049662;28;20051;-77
2023/10/05 08:51:50;;;;;;;22.75;6.07;;;13.80;99.90;;;;;;5025577;28;20103;-79
2023/10/05 08:54:21;;;;;;;19.00;5.47;;;13.80;99.90;;;;;;5042105;28;20045;-80
2023/10/05 08:56:47;;;;;;;24.05;5.68;;;13.80;99.90;;;;;;5041610;28;20038;-79
2023/10/05 08:59:19;;;;;;;22.92;5.95;;;13.80;99.90;;;;;;5044073;28;20029;-73
2023/10/05 09:01:54;;;;;;;25.83;5.90;;;13.80;99.90;;;;;;5043439;28;20036;-76
2023/10/05 09:04:29;;;;;;;21.98;6.40;;;13.80;99.90;;;;;;5026664;28;20053;-76
2023/10/05 09:06:57;;;;;;;30.88;6.10;;;13.90;99.90;;;;;;5026029;28;20523;-76
2023/10/05 09:09:38;;;;;;;21.13;5.53;;;13.90;99.90;;;;;;5044149;28;20037;-82
2023/10/05 09:12:37;;;;;;;25.08;5.72;;;13.90;99.90;;;;;;5044134;28;20033;-76
2023/10/05 09:15:29;;;;;;;21.60;5.55;;;13.90;99.90;;;;;;5022335;28;20045;-77
2023/10/05 09:17:57;;;;;;;21.95;5.80;;;13.80;99.90;;;;;;5042355;28;20101;-76
2023/10/05 09:20:33;;;;;;;20.08;5.78;;;13.80;99.90;;;;;;5022769;28;20045;-73
2023/10/05 09:23:09;;;;;;;30.42;6.55;;;13.80;99.90;;;;;;5026425;28;20048;-71
2023/10/05 09:25:44;;;;;;;28.40;6.13;;;13.80;99.90;;;;;;5043829;28;20025;-71
2023/10/05 09:28:15;;;;;;;21.25;5.20;;;13.80;99.90;;;;;;5042198;28;20028;-72
2023/10/05 09:30:55;;;;;;;19.58;5.50;;;13.80;99.90;;;;;;5042940;28;20108;-72
2023/10/05 09:33:27;;;;;;;17.23;6.00;;;13.80;99.90;;;;;;5042587;28;20072;-71
2023/10/05 09:36:06;;;;;;;19.50;5.82;;;13.80;99.90;;;;;;5033719;28;20025;-70
2023/10/05 09:38:40;;;;;;;25.60;6.57;;;13.80;99.90;;;;;;5043002;28;20057;-71
2023/10/05 09:41:08;;;;;;;18.70;6.53;;;13.90;99.90;;;;;;5042775;28;20057;-70
2023/10/05 09:43:38;;;;;;;18.70;6.18;;;14.00;99.90;;;;;;5024944;28;20037;-70
2023/10/05 09:46:09;;;;;;;18.50;5.70;;;14.00;99.90;;;;;;5039964;28;20490;-73
2023/10/05 09:48:37;;;;;;;15.65;5.80;;;14.00;99.90;;;;;;5042165;28;20502;-71
2023/10/05 09:51:10;;;;;;;17.50;5.82;;;14.00;99.90;;;;;;5025091;28;20033;-72
2023/10/05 09:53:42;;;;;;;17.13;6.57;;;14.00;99.90;;;;;;5042724;28;20045;-71
2023/10/05 09:56:12;;;;;;;19.45;6.40;;;14.00;99.90;;;;;;5021310;28;20038;-71
2023/10/05 09:58:41;;;;;;;21.05;5.22;;;14.00;99.90;;;;;;5039408;28;20108;-72
2023/10/05 10:01:10;;;;;;;19.00;5.07;;;14.00;99.90;;;;;;5042520;28;20025;-73
2023/10/05 10:03:37;;;;;;;20.40;5.65;;;14.00;99.90;;;;;;5042053;28;20018;-70
2023/10/05 10:06:10;;;;;;;17.55;4.60;;;14.00;99.90;;;;;;5021276;28;20030;-73
2023/10/05 10:08:55;;;;;;;14.23;4.90;;;14.00;99.90;;;;;;5020946;28;20056;-77
2023/10/05 10:11:27;;;;;;;17.92;4.65;;;14.00;99.90;;;;;;5023922;28;20042;-73
2023/10/05 10:14:09;;;;;;;12.13;4.10;;;14.10;99.90;;;;;;5042778;28;20041;-71
2023/10/05 10:16:41;;;;;;;13.68;5.05;;;14.20;99.90;;;;;;5024989;28;20096;-71
2023/10/05 10:19:20;;;;;;;14.70;4.18;;;14.20;99.90;;;;;;5042579;28;20021;-69
2023/10/05 10:22:11;;;;;;;15.90;3.22;;;14.40;99.90;;;;;;5042946;28;20132;-71
2023/10/05 10:24:37;;;;;;;11.73;3.55;;;14.40;99.90;;;;;;5042431;28;20152;-75
2023/10/05 10:27:07;;;;;;;12.05;2.95;;;14.50;99.90;;;;;;5042717;28;20049;-75
2023/10/05 10:29:55;;;;;;;16.73;3.50;;;14.50;99.90;;;;;;5046325;28;20021;-74
2023/10/05 10:32:31;;;;;;;9.90;3.45;;;14.50;99.90;;;;;;5027562;28;20061;-72
2023/10/05 10:35:26;;;;;;;10.40;2.70;;;14.40;99.90;;;;;;5046334;28;20421;-75
2023/10/05 10:37:54;;;;;;;;;;;14.50;99.90;;;;;;5028413;28;20034;-73
2023/10/05 10:43:20;;;;;;;9.40;2.10;;;14.50;99.90;;;;;;5046339;28;20659;-72
2023/10/05 10:45:46;;;;;;;8.02;2.75;;;14.60;99.90;;;;;;5044709;28;20041;-74
2023/10/05 10:48:28;;;;;;;11.57;2.97;;;14.60;99.90;;;;;;5026233;28;20601;-75
2023/10/05 10:50:59;;;;;;;15.52;2.58;;;14.60;99.90;;;;;;5023439;28;20549;-75
2023/10/05 10:53:30;;;;;;;8.95;2.58;;;14.70;99.90;;;;;;5030259;28;20049;-72
2023/10/05 10:56:04;;;;;;;9.50;2.58;;;14.80;99.90;;;;;;5046943;28;20030;-75
2023/10/05 10:58:31;;;;;;;11.45;2.65;;;14.80;99.90;;;;;;5047023;28;20091;-74
2023/10/05 11:01:04;;;;;;;9.82;2.58;;;14.90;99.90;;;;;;5027870;28;20041;-72
2023/10/05 11:03:36;;;;;;;14.82;2.92;;;15.00;99.90;;;;;;5028722;28;20021;-78
2023/10/05 11:06:04;;;;;;;9.05;2.47;;;15.10;99.90;;;;;;5020803;28;20030;-75
2023/10/05 11:08:40;;;;;;;6.22;2.78;;;15.20;99.90;;;;;;5046270;28;20048;-75
2023/10/05 11:11:15;;;;;;;13.32;3.58;;;15.30;99.90;;;;;;5046631;28;20029;-78
2023/10/05 11:13:44;;;;;;;;;;;15.40;99.90;;;;;;5025432;28;20061;-75
2023/10/05 11:16:11;;;;;;;10.93;3.08;;;15.40;99.90;;;;;;5046641;28;19905;-78
2023/10/05 11:18:58;;;;;;;9.55;2.90;;;15.40;99.90;;;;;;5028669;28;20052;-78
2023/10/05 11:21:33;;;;;;;12.10;3.47;;;15.40;99.90;;;;;;5027684;28;20033;-80
2023/10/05 11:24:06;;;;;;;10.20;3.50;;;15.30;99.90;;;;;;5027748;28;20053;-77
2023/10/05 11:26:35;;;;;;;12.73;3.05;;;15.40;99.90;;;;;;5045636;28;20030;-77
2023/10/05 11:29:07;;;;;;;14.25;3.47;;;15.50;99.90;;;;;;5045294;28;20408;-78
2023/10/05 11:31:34;;;;;;;10.88;3.00;;;15.50;99.90;;;;;;5027627;28;20030;-74
2023/10/05 11:34:11;;;;;;;12.25;3.25;;;15.60;99.90;;;;;;5044695;28;20049;-76
2023/10/05 11:36:42;;;;;;;11.82;3.00;;;15.70;99.90;;;;;;5024277;28;20034;-75
2023/10/05 11:39:22;;;;;;;15.25;2.97;;;15.70;99.90;;;;;;5038608;28;20045;-76
2023/10/05 11:41:48;;;;;;;10.50;2.88;;;15.70;99.90;;;;;;5027305;28;20025;-76
2023/10/05 11:44:23;;;;;;;12.55;2.58;;;15.80;99.90;;;;;;5046005;28;20097;-76
2023/10/05 11:46:53;;;;;;;9.55;2.47;;;15.90;99.90;;;;;;5045257;28;20048;-76
2023/10/05 11:49:20;;;;;;;11.73;2.60;;;16.00;99.90;;;;;;5045369;28;20026;-76
2023/10/05 11:52:11;;;;;;;10.88;2.30;;;16.20;99.90;;;;;;5027853;28;20033;-74
2023/10/05 11:54:34;;;;;;;11.60;2.38;;;16.40;99.90;;;;;;5044789;28;20117;-76
2023/10/05 11:57:00;;;;;;;9.88;2.47;;;16.40;99.90;;;;;;5027468;28;20052;-72
2023/10/05 11:59:27;;;;;;;11.27;2.53;;;16.40;99.90;;;;;;5045769;28;20026;-76
2023/10/05 12:01:53;;;;;;;12.13;2.40;;;16.50;99.90;;;;;;5043795;28;20109;-79
2023/10/05 12:04:23;;;;;;;11.32;2.55;;;16.60;99.90;;;;;;5029131;28;20029;-79
2023/10/05 12:07:02;;;;;;;10.27;2.00;;;16.80;99.90;;;;;;5028170;28;20064;-74
2023/10/05 12:09:32;;;;;;;8.48;1.95;;;17.00;99.90;;;;;;5049143;28;20021;-73
2023/10/05 12:11:58;;;;;;;11.80;2.28;;;17.00;99.90;;;;;;5045262;28;20049;-74
2023/10/05 12:14:27;;;;;;;10.23;2.58;;;17.00;99.90;;;;;;5027198;28;20069;-75
2023/10/05 12:16:56;;;;;;;7.88;1.92;;;17.00;99.90;;;;;;5026394;28;20030;-75
2023/10/05 12:19:29;;;;;;;7.53;1.95;;;17.00;99.90;;;;;;5045060;28;20052;-74
2023/10/05 12:22:00;;;;;;;5.25;1.63;;;17.00;99.90;;;;;;5045190;28;20109;-75
2023/10/05 12:24:26;;;;;;;10.60;2.13;;;17.10;99.90;;;;;;5027162;28;20056;-77
2023/10/05 12:26:53;;;;;;;9.18;2.20;;;17.20;99.90;;;;;;5045311;28;20033;-74
2023/10/05 12:29:18;;;;;;;6.40;1.80;;;17.50;99.90;;;;;;5023498;28;20048;-74
2023/10/05 12:31:49;;;;;;;9.63;1.70;;;17.90;99.90;;;;;;5042210;28;20030;-78
2023/10/05 12:34:16;;;;;;;12.82;1.98;;;18.20;99.90;;;;;;5044754;28;20099;-74
2023/10/05 12:36:51;;;;;;;10.55;1.92;;;18.30;99.90;;;;;;5044341;28;20355;-74
2023/10/05 12:39:17;;;;;;;8.20;1.77;;;18.50;99.90;;;;;;5044635;28;20110;-74
2023/10/05 12:41:46;;;;;;;5.75;1.38;;;18.90;99.90;;;;;;5029300;28;20506;-78
2023/10/05 12:44:13;;;;;;;7.72;1.63;;;19.10;99.90;;;;;;5043556;28;20025;-74
2023/10/05 12:46:46;;;;;;;14.00;1.90;;;19.20;99.90;;;;;;5042273;28;20049;-78
2023/10/05 12:49:14;;;;;;;13.32;1.48;;;19.40;99.90;;;;;;5043200;28;20039;-79
2023/10/05 12:51:41;;;;;;;8.27;1.70;;;19.30;99.90;;;;;;5041871;28;20025;-74
2023/10/05 12:54:18;;;;;;;5.55;1.25;;;19.20;99.90;;;;;;5024971;28;20041;-81
2023/10/05 12:56:44;;;;;;;14.20;1.98;;;18.90;99.90;;;;;;5025211;28;20533;-76
2023/10/05 12:59:15;;;;;;;7.88;1.73;;;18.50;99.90;;;;;;5042420;28;20021;-79
2023/10/05 13:01:43;;;;;;;8.15;1.42;;;18.20;99.90;;;;;;5024874;28;20059;-78
2023/10/05 13:04:10;;;;;;;9.93;1.90;;;17.80;99.90;;;;;;5042882;28;20485;-77
2023/10/05 13:06:39;;;;;;;9.82;1.70;;;17.50;99.90;;;;;;5042329;28;20060;-78
2023/10/05 13:09:11;;;;;;;12.07;2.10;;;17.30;99.90;;;;;;5042913;28;20112;-77
2023/10/05 13:11:39;;;;;;;10.02;1.80;;;17.20;99.90;;;;;;5023844;28;20116;-79